sensor_id;sensor_type;location;lat;lon;timestamp;P1;durP1;ratioP1;P2;durP2;ratioP2
13263;SDS011;6700;51.988;7.646;2022-11-18T00:01:17;8.57;;;6.50;;
13263;SDS011;6700;51.988;7.646;2022-11-18T00:03:44;9.20;;;5.60;;
13263;SDS011;6700;51.988;7.646;2022-11-18T00:06:13;10.33;;;6.13;;
13263;SDS011;6700;51.988;7.646;2022-11-18T00:08:40;8.50;;;6.50;;
13263;SDS011;6700;51.988;7.646;2022-11-18T00:11:08;9.67;;;6.90;;
13263;SDS011;6700;51.988;7.646;2022-11-18T00:13:36;14.73;;;6.83;;
13263;SDS011;6700;51.988;7.646;2022-11-18T00:16:22;10.57;;;6.17;;
13263;SDS011;6700;51.988;7.646;2022-11-18T00:18:50;7.50;;;5.90;;
13263;SDS011;6700;51.988;7.646;2022-11-18T00:21:17;8.37;;;5.83;;
13263;SDS011;6700;51.988;7.646;2022-11-18T00:23:47;10.87;;;5.70;;
13263;SDS011;6700;51.988;7.646;2022-11-18T00:26:14;9.33;;;5.93;;
13263;SDS011;6700;51.988;7.646;2022-11-18T00:28:41;6.63;;;5.50;;
13263;SDS011;6700;51.988;7.646;2022-11-18T00:31:09;10.10;;;5.90;;
13263;SDS011;6700;51.988;7.646;2022-11-18T00:33:37;7.73;;;6.07;;
13263;SDS011;6700;51.988;7.646;2022-11-18T00:36:08;10.83;;;5.93;;
13263;SDS011;6700;51.988;7.646;2022-11-18T00:38:36;6.00;;;5.23;;
13263;SDS011;6700;51.988;7.646;2022-11-18T00:43:30;8.77;;;6.87;;
13263;SDS011;6700;51.988;7.646;2022-11-18T00:45:58;11.97;;;6.10;;
13263;SDS011;6700;51.988;7.646;2022-11-18T00:48:25;14.50;;;6.50;;
13263;SDS011;6700;51.988;7.646;2022-11-18T00:50:54;7.67;;;5.23;;
13263;SDS011;6700;51.988;7.646;2022-11-18T00:53:22;10.23;;;5.47;;
13263;SDS011;6700;51.988;7.646;2022-11-18T00:55:50;8.43;;;6.10;;
13263;SDS011;6700;51.988;7.646;2022-11-18T00:58:17;10.37;;;5.43;;
13263;SDS011;6700;51.988;7.646;2022-11-18T01:00:46;11.63;;;6.23;;
13263;SDS011;6700;51.988;7.646;2022-11-18T01:03:14;9.13;;;6.10;;
13263;SDS011;6700;51.988;7.646;2022-11-18T01:05:41;7.33;;;5.90;;
13263;SDS011;6700;51.988;7.646;2022-11-18T01:08:09;8.07;;;5.90;;
13263;SDS011;6700;51.988;7.646;2022-11-18T01:10:36;7.90;;;5.70;;
13263;SDS011;6700;51.988;7.646;2022-11-18T01:13:04;9.20;;;6.87;;
13263;SDS011;6700;51.988;7.646;2022-11-18T01:15:52;9.53;;;5.90;;
13263;SDS011;6700;51.988;7.646;2022-11-18T01:18:23;7.80;;;5.50;;
13263;SDS011;6700;51.988;7.646;2022-11-18T01:20:50;8.10;;;5.53;;
13263;SDS011;6700;51.988;7.646;2022-11-18T01:23:18;9.80;;;6.00;;
13263;SDS011;6700;51.988;7.646;2022-11-18T01:25:46;6.67;;;5.63;;
13263;SDS011;6700;51.988;7.646;2022-11-18T01:28:15;10.63;;;6.17;;
13263;SDS011;6700;51.988;7.646;2022-11-18T01:30:48;7.07;;;6.17;;
13263;SDS011;6700;51.988;7.646;2022-11-18T01:33:15;8.23;;;5.93;;
13263;SDS011;6700;51.988;7.646;2022-11-18T01:35:43;8.37;;;6.20;;
13263;SDS011;6700;51.988;7.646;2022-11-18T01:38:11;6.17;;;5.40;;
13263;SDS011;6700;51.988;7.646;2022-11-18T01:40:39;7.53;;;5.40;;
13263;SDS011;6700;51.988;7.646;2022-11-18T01:43:13;7.97;;;5.50;;
13263;SDS011;6700;51.988;7.646;2022-11-18T01:45:42;6.47;;;5.40;;
13263;SDS011;6700;51.988;7.646;2022-11-18T01:48:11;6.20;;;5.13;;
13263;SDS011;6700;51.988;7.646;2022-11-18T01:50:40;13.50;;;6.70;;
13263;SDS011;6700;51.988;7.646;2022-11-18T01:53:17;9.00;;;5.97;;
13263;SDS011;6700;51.988;7.646;2022-11-18T01:55:46;10.43;;;6.40;;
13263;SDS011;6700;51.988;7.646;2022-11-18T01:58:15;8.63;;;6.43;;
13263;SDS011;6700;51.988;7.646;2022-11-18T02:00:45;7.77;;;6.40;;
13263;SDS011;6700;51.988;7.646;2022-11-18T02:03:12;11.33;;;6.70;;
13263;SDS011;6700;51.988;7.646;2022-11-18T02:05:39;11.53;;;6.23;;
13263;SDS011;6700;51.988;7.646;2022-11-18T02:08:07;10.90;;;7.27;;
13263;SDS011;6700;51.988;7.646;2022-11-18T02:10:35;9.67;;;6.63;;
13263;SDS011;6700;51.988;7.646;2022-11-18T02:13:03;11.87;;;6.67;;
13263;SDS011;6700;51.988;7.646;2022-11-18T02:19:08;9.53;;;6.43;;
13263;SDS011;6700;51.988;7.646;2022-11-18T02:29:15;9.80;;;7.40;;
13263;SDS011;6700;51.988;7.646;2022-11-18T02:39:33;7.83;;;6.77;;
13263;SDS011;6700;51.988;7.646;2022-11-18T02:42:03;9.43;;;7.23;;
13263;SDS011;6700;51.988;7.646;2022-11-18T02:44:30;9.13;;;7.77;;
13263;SDS011;6700;51.988;7.646;2022-11-18T02:46:59;9.00;;;7.23;;
13263;SDS011;6700;51.988;7.646;2022-11-18T02:49:30;12.00;;;8.00;;
13263;SDS011;6700;51.988;7.646;2022-11-18T02:51:58;11.83;;;8.50;;
13263;SDS011;6700;51.988;7.646;2022-11-18T02:54:26;13.50;;;7.83;;
13263;SDS011;6700;51.988;7.646;2022-11-18T02:56:54;9.77;;;7.73;;
13263;SDS011;6700;51.988;7.646;2022-11-18T02:59:21;9.70;;;7.50;;
13263;SDS011;6700;51.988;7.646;2022-11-18T03:01:48;10.93;;;7.97;;
13263;SDS011;6700;51.988;7.646;2022-11-18T03:04:16;10.83;;;8.03;;
13263;SDS011;6700;51.988;7.646;2022-11-18T03:06:46;10.37;;;7.53;;
13263;SDS011;6700;51.988;7.646;2022-11-18T03:11:54;8.90;;;7.30;;
13263;SDS011;6700;51.988;7.646;2022-11-18T03:22:07;9.70;;;8.10;;
13263;SDS011;6700;51.988;7.646;2022-11-18T03:24:38;10.87;;;7.63;;
13263;SDS011;6700;51.988;7.646;2022-11-18T03:27:10;10.93;;;8.87;;
13263;SDS011;6700;51.988;7.646;2022-11-18T03:29:40;11.90;;;9.27;;
13263;SDS011;6700;51.988;7.646;2022-11-18T03:32:09;11.73;;;8.93;;
13263;SDS011;6700;51.988;7.646;2022-11-18T03:34:42;11.37;;;9.07;;
13263;SDS011;6700;51.988;7.646;2022-11-18T03:37:11;12.17;;;8.37;;
13263;SDS011;6700;51.988;7.646;2022-11-18T03:39:41;13.93;;;8.70;;
13263;SDS011;6700;51.988;7.646;2022-11-18T03:42:11;9.33;;;8.03;;
13263;SDS011;6700;51.988;7.646;2022-11-18T03:44:42;10.23;;;8.40;;
13263;SDS011;6700;51.988;7.646;2022-11-18T03:47:19;12.20;;;8.57;;
13263;SDS011;6700;51.988;7.646;2022-11-18T03:49:49;10.63;;;8.20;;
13263;SDS011;6700;51.988;7.646;2022-11-18T03:52:19;11.87;;;9.00;;
13263;SDS011;6700;51.988;7.646;2022-11-18T03:54:49;15.27;;;8.27;;
13263;SDS011;6700;51.988;7.646;2022-11-18T03:57:19;11.60;;;9.03;;
13263;SDS011;6700;51.988;7.646;2022-11-18T03:59:51;16.33;;;8.90;;
13263;SDS011;6700;51.988;7.646;2022-11-18T04:02:20;12.57;;;8.93;;
13263;SDS011;6700;51.988;7.646;2022-11-18T04:04:49;9.27;;;8.30;;
13263;SDS011;6700;51.988;7.646;2022-11-18T04:09:52;9.27;;;8.27;;
13263;SDS011;6700;51.988;7.646;2022-11-18T04:12:21;10.13;;;8.23;;
13263;SDS011;6700;51.988;7.646;2022-11-18T04:14:49;12.00;;;8.47;;
13263;SDS011;6700;51.988;7.646;2022-11-18T04:17:21;10.57;;;8.30;;
13263;SDS011;6700;51.988;7.646;2022-11-18T04:19:48;9.50;;;8.60;;
13263;SDS011;6700;51.988;7.646;2022-11-18T04:22:15;11.23;;;8.60;;
13263;SDS011;6700;51.988;7.646;2022-11-18T04:24:44;15.17;;;8.77;;
13263;SDS011;6700;51.988;7.646;2022-11-18T04:27:11;11.37;;;8.57;;
13263;SDS011;6700;51.988;7.646;2022-11-18T04:29:38;11.03;;;8.27;;
13263;SDS011;6700;51.988;7.646;2022-11-18T04:32:05;9.23;;;8.20;;
13263;SDS011;6700;51.988;7.646;2022-11-18T04:34:33;13.60;;;9.23;;
13263;SDS011;6700;51.988;7.646;2022-11-18T04:37:00;9.97;;;8.97;;
13263;SDS011;6700;51.988;7.646;2022-11-18T04:39:27;13.23;;;9.50;;
13263;SDS011;6700;51.988;7.646;2022-11-18T04:41:54;9.87;;;8.80;;
13263;SDS011;6700;51.988;7.646;2022-11-18T04:44:25;12.17;;;8.87;;
13263;SDS011;6700;51.988;7.646;2022-11-18T04:46:53;9.67;;;8.50;;
13263;SDS011;6700;51.988;7.646;2022-11-18T04:49:21;10.57;;;8.97;;
13263;SDS011;6700;51.988;7.646;2022-11-18T04:51:49;10.20;;;9.10;;
13263;SDS011;6700;51.988;7.646;2022-11-18T04:54:16;9.73;;;8.37;;
13263;SDS011;6700;51.988;7.646;2022-11-18T04:56:44;12.77;;;8.83;;
13263;SDS011;6700;51.988;7.646;2022-11-18T04:59:15;13.03;;;9.10;;
13263;SDS011;6700;51.988;7.646;2022-11-18T05:01:43;14.63;;;9.70;;
13263;SDS011;6700;51.988;7.646;2022-11-18T05:04:12;12.93;;;9.67;;
13263;SDS011;6700;51.988;7.646;2022-11-18T05:06:39;16.10;;;9.83;;
13263;SDS011;6700;51.988;7.646;2022-11-18T05:09:07;13.47;;;9.77;;
13263;SDS011;6700;51.988;7.646;2022-11-18T05:11:34;13.20;;;9.47;;
13263;SDS011;6700;51.988;7.646;2022-11-18T05:14:20;18.67;;;11.10;;
13263;SDS011;6700;51.988;7.646;2022-11-18T05:16:47;10.47;;;9.37;;
13263;SDS011;6700;51.988;7.646;2022-11-18T05:19:14;13.07;;;9.87;;
13263;SDS011;6700;51.988;7.646;2022-11-18T05:21:42;16.60;;;10.37;;
13263;SDS011;6700;51.988;7.646;2022-11-18T05:24:09;15.20;;;9.93;;
13263;SDS011;6700;51.988;7.646;2022-11-18T05:26:36;11.43;;;9.87;;
13263;SDS011;6700;51.988;7.646;2022-11-18T05:29:03;13.27;;;9.70;;
13263;SDS011;6700;51.988;7.646;2022-11-18T05:31:30;13.27;;;9.70;;
13263;SDS011;6700;51.988;7.646;2022-11-18T05:33:58;14.93;;;10.03;;
13263;SDS011;6700;51.988;7.646;2022-11-18T05:36:25;15.23;;;10.83;;
13263;SDS011;6700;51.988;7.646;2022-11-18T05:38:52;13.90;;;10.07;;
13263;SDS011;6700;51.988;7.646;2022-11-18T05:41:19;11.67;;;10.17;;
13263;SDS011;6700;51.988;7.646;2022-11-18T05:44:05;15.47;;;9.93;;
13263;SDS011;6700;51.988;7.646;2022-11-18T05:46:32;10.87;;;8.90;;
13263;SDS011;6700;51.988;7.646;2022-11-18T05:48:59;16.10;;;9.83;;
13263;SDS011;6700;51.988;7.646;2022-11-18T05:51:26;14.97;;;9.23;;
13263;SDS011;6700;51.988;7.646;2022-11-18T05:53:53;12.37;;;9.27;;
13263;SDS011;6700;51.988;7.646;2022-11-18T05:56:22;11.10;;;9.43;;
13263;SDS011;6700;51.988;7.646;2022-11-18T05:58:51;11.73;;;8.93;;
13263;SDS011;6700;51.988;7.646;2022-11-18T06:01:20;11.83;;;9.40;;
13263;SDS011;6700;51.988;7.646;2022-11-18T06:03:48;11.23;;;9.73;;
13263;SDS011;6700;51.988;7.646;2022-11-18T06:06:16;10.40;;;9.03;;
13263;SDS011;6700;51.988;7.646;2022-11-18T06:08:46;14.13;;;10.00;;
13263;SDS011;6700;51.988;7.646;2022-11-18T06:11:15;14.80;;;10.27;;
13263;SDS011;6700;51.988;7.646;2022-11-18T06:13:57;12.27;;;9.73;;
13263;SDS011;6700;51.988;7.646;2022-11-18T06:16:26;12.83;;;10.17;;
13263;SDS011;6700;51.988;7.646;2022-11-18T06:18:54;12.03;;;9.37;;
13263;SDS011;6700;51.988;7.646;2022-11-18T06:21:22;10.50;;;9.40;;
13263;SDS011;6700;51.988;7.646;2022-11-18T06:23:50;17.57;;;9.70;;
13263;SDS011;6700;51.988;7.646;2022-11-18T06:26:17;12.37;;;9.23;;
13263;SDS011;6700;51.988;7.646;2022-11-18T06:28:44;12.70;;;9.53;;
13263;SDS011;6700;51.988;7.646;2022-11-18T06:31:12;14.13;;;9.93;;
13263;SDS011;6700;51.988;7.646;2022-11-18T06:33:41;15.03;;;10.20;;
13263;SDS011;6700;51.988;7.646;2022-11-18T06:36:09;15.30;;;10.13;;
13263;SDS011;6700;51.988;7.646;2022-11-18T06:38:36;13.67;;;10.07;;
13263;SDS011;6700;51.988;7.646;2022-11-18T06:41:03;13.13;;;10.37;;
13263;SDS011;6700;51.988;7.646;2022-11-18T06:43:30;14.93;;;11.80;;
13263;SDS011;6700;51.988;7.646;2022-11-18T06:46:04;15.43;;;11.20;;
13263;SDS011;6700;51.988;7.646;2022-11-18T06:48:51;16.97;;;12.40;;
13263;SDS011;6700;51.988;7.646;2022-11-18T06:51:18;17.40;;;12.57;;
13263;SDS011;6700;51.988;7.646;2022-11-18T06:53:45;16.70;;;11.83;;
13263;SDS011;6700;51.988;7.646;2022-11-18T06:56:13;18.90;;;11.73;;
13263;SDS011;6700;51.988;7.646;2022-11-18T06:58:41;13.47;;;11.77;;
13263;SDS011;6700;51.988;7.646;2022-11-18T07:03:37;15.00;;;11.90;;
13263;SDS011;6700;51.988;7.646;2022-11-18T07:06:04;17.90;;;11.83;;
13263;SDS011;6700;51.988;7.646;2022-11-18T07:08:33;19.93;;;12.53;;
13263;SDS011;6700;51.988;7.646;2022-11-18T07:11:00;17.40;;;12.90;;
13263;SDS011;6700;51.988;7.646;2022-11-18T07:13:28;16.97;;;12.67;;
13263;SDS011;6700;51.988;7.646;2022-11-18T07:16:00;17.83;;;12.83;;
13263;SDS011;6700;51.988;7.646;2022-11-18T07:18:28;21.17;;;13.83;;
13263;SDS011;6700;51.988;7.646;2022-11-18T07:20:55;15.93;;;12.87;;
13263;SDS011;6700;51.988;7.646;2022-11-18T07:23:22;16.53;;;13.80;;
13263;SDS011;6700;51.988;7.646;2022-11-18T07:25:52;16.53;;;11.80;;
13263;SDS011;6700;51.988;7.646;2022-11-18T07:28:20;14.90;;;12.10;;
13263;SDS011;6700;51.988;7.646;2022-11-18T07:30:47;19.97;;;12.83;;
13263;SDS011;6700;51.988;7.646;2022-11-18T07:33:17;16.60;;;13.00;;
13263;SDS011;6700;51.988;7.646;2022-11-18T07:35:54;17.03;;;13.00;;
13263;SDS011;6700;51.988;7.646;2022-11-18T07:38:22;19.43;;;13.57;;
13263;SDS011;6700;51.988;7.646;2022-11-18T07:40:49;15.17;;;12.37;;
13263;SDS011;6700;51.988;7.646;2022-11-18T07:43:16;21.60;;;13.57;;
13263;SDS011;6700;51.988;7.646;2022-11-18T07:45:43;18.97;;;14.40;;
13263;SDS011;6700;51.988;7.646;2022-11-18T07:48:10;21.80;;;14.60;;
13263;SDS011;6700;51.988;7.646;2022-11-18T07:50:37;17.67;;;14.47;;
13263;SDS011;6700;51.988;7.646;2022-11-18T07:53:12;18.27;;;13.80;;
13263;SDS011;6700;51.988;7.646;2022-11-18T07:55:39;18.83;;;13.90;;
13263;SDS011;6700;51.988;7.646;2022-11-18T07:58:06;19.17;;;12.93;;
13263;SDS011;6700;51.988;7.646;2022-11-18T08:00:33;19.23;;;13.97;;
13263;SDS011;6700;51.988;7.646;2022-11-18T08:03:00;21.87;;;13.63;;
13263;SDS011;6700;51.988;7.646;2022-11-18T08:05:27;18.77;;;14.90;;
13263;SDS011;6700;51.988;7.646;2022-11-18T08:07:54;17.43;;;13.63;;
13263;SDS011;6700;51.988;7.646;2022-11-18T08:10:21;18.20;;;13.70;;
13263;SDS011;6700;51.988;7.646;2022-11-18T08:12:49;17.87;;;13.33;;
13263;SDS011;6700;51.988;7.646;2022-11-18T08:15:17;17.93;;;13.17;;
13263;SDS011;6700;51.988;7.646;2022-11-18T08:17:44;17.70;;;12.60;;
13263;SDS011;6700;51.988;7.646;2022-11-18T08:20:11;17.47;;;12.67;;
13263;SDS011;6700;51.988;7.646;2022-11-18T08:22:38;18.07;;;13.10;;
13263;SDS011;6700;51.988;7.646;2022-11-18T08:25:05;18.43;;;13.00;;
13263;SDS011;6700;51.988;7.646;2022-11-18T08:27:32;18.13;;;13.43;;
13263;SDS011;6700;51.988;7.646;2022-11-18T08:30:00;17.03;;;13.07;;
13263;SDS011;6700;51.988;7.646;2022-11-18T08:32:27;15.97;;;12.70;;
13263;SDS011;6700;51.988;7.646;2022-11-18T08:34:54;19.60;;;14.07;;
13263;SDS011;6700;51.988;7.646;2022-11-18T08:37:21;17.03;;;13.80;;
13263;SDS011;6700;51.988;7.646;2022-11-18T08:39:48;17.70;;;13.23;;
13263;SDS011;6700;51.988;7.646;2022-11-18T08:42:15;17.27;;;13.07;;
13263;SDS011;6700;51.988;7.646;2022-11-18T08:44:49;16.23;;;12.47;;
13263;SDS011;6700;51.988;7.646;2022-11-18T08:47:17;17.43;;;12.60;;
13263;SDS011;6700;51.988;7.646;2022-11-18T08:49:44;16.77;;;13.00;;
13263;SDS011;6700;51.988;7.646;2022-11-18T08:52:11;18.70;;;12.60;;
13263;SDS011;6700;51.988;7.646;2022-11-18T08:54:38;18.80;;;13.43;;
13263;SDS011;6700;51.988;7.646;2022-11-18T08:57:05;16.20;;;12.63;;
13263;SDS011;6700;51.988;7.646;2022-11-18T08:59:32;15.07;;;12.07;;
13263;SDS011;6700;51.988;7.646;2022-11-18T09:01:59;18.90;;;13.87;;
13263;SDS011;6700;51.988;7.646;2022-11-18T09:04:27;19.00;;;12.27;;
13263;SDS011;6700;51.988;7.646;2022-11-18T09:06:54;16.53;;;13.07;;
13263;SDS011;6700;51.988;7.646;2022-11-18T09:09:21;16.93;;;12.67;;
13263;SDS011;6700;51.988;7.646;2022-11-18T09:11:49;23.13;;;13.67;;
13263;SDS011;6700;51.988;7.646;2022-11-18T09:14:16;18.83;;;13.80;;
13263;SDS011;6700;51.988;7.646;2022-11-18T09:17:03;18.43;;;13.37;;
13263;SDS011;6700;51.988;7.646;2022-11-18T09:19:30;19.13;;;13.53;;
13263;SDS011;6700;51.988;7.646;2022-11-18T09:22:13;18.43;;;14.03;;
13263;SDS011;6700;51.988;7.646;2022-11-18T09:24:40;19.53;;;13.27;;
13263;SDS011;6700;51.988;7.646;2022-11-18T09:27:08;19.37;;;14.43;;
13263;SDS011;6700;51.988;7.646;2022-11-18T09:29:42;19.33;;;13.03;;
13263;SDS011;6700;51.988;7.646;2022-11-18T09:32:09;17.13;;;13.57;;
13263;SDS011;6700;51.988;7.646;2022-11-18T09:34:36;18.23;;;13.77;;
13263;SDS011;6700;51.988;7.646;2022-11-18T09:37:03;17.50;;;14.13;;
13263;SDS011;6700;51.988;7.646;2022-11-18T09:39:35;19.63;;;14.80;;
13263;SDS011;6700;51.988;7.646;2022-11-18T09:47:22;19.03;;;13.73;;
13263;SDS011;6700;51.988;7.646;2022-11-18T09:49:51;17.87;;;13.10;;
13263;SDS011;6700;51.988;7.646;2022-11-18T09:52:23;17.90;;;13.37;;
13263;SDS011;6700;51.988;7.646;2022-11-18T09:54:59;17.17;;;13.57;;
13263;SDS011;6700;51.988;7.646;2022-11-18T09:57:39;20.73;;;12.70;;
13263;SDS011;6700;51.988;7.646;2022-11-18T10:00:18;16.33;;;12.77;;
13263;SDS011;6700;51.988;7.646;2022-11-18T10:05:16;17.20;;;13.17;;
13263;SDS011;6700;51.988;7.646;2022-11-18T10:13:11;22.57;;;14.37;;
13263;SDS011;6700;51.988;7.646;2022-11-18T10:15:48;18.67;;;13.47;;
13263;SDS011;6700;51.988;7.646;2022-11-18T10:21:11;18.03;;;13.63;;
13263;SDS011;6700;51.988;7.646;2022-11-18T10:24:03;19.20;;;13.93;;
13263;SDS011;6700;51.988;7.646;2022-11-18T10:26:32;19.27;;;14.00;;
13263;SDS011;6700;51.988;7.646;2022-11-18T10:28:59;23.20;;;14.80;;
13263;SDS011;6700;51.988;7.646;2022-11-18T10:31:27;20.67;;;14.77;;
13263;SDS011;6700;51.988;7.646;2022-11-18T10:34:00;18.77;;;14.80;;
13263;SDS011;6700;51.988;7.646;2022-11-18T10:36:29;19.70;;;15.17;;
13263;SDS011;6700;51.988;7.646;2022-11-18T10:41:57;19.13;;;14.13;;
13263;SDS011;6700;51.988;7.646;2022-11-18T10:44:36;21.27;;;15.57;;
13263;SDS011;6700;51.988;7.646;2022-11-18T10:49:42;27.57;;;14.80;;
13263;SDS011;6700;51.988;7.646;2022-11-18T10:52:11;20.27;;;15.47;;
13263;SDS011;6700;51.988;7.646;2022-11-18T10:54:39;20.27;;;14.17;;
13263;SDS011;6700;51.988;7.646;2022-11-18T11:02:11;21.57;;;14.40;;
13263;SDS011;6700;51.988;7.646;2022-11-18T11:04:41;20.80;;;14.87;;
13263;SDS011;6700;51.988;7.646;2022-11-18T11:07:25;21.33;;;15.80;;
13263;SDS011;6700;51.988;7.646;2022-11-18T11:12:42;18.80;;;13.73;;
13263;SDS011;6700;51.988;7.646;2022-11-18T11:15:13;18.80;;;13.37;;
13263;SDS011;6700;51.988;7.646;2022-11-18T11:17:47;18.63;;;14.70;;
13263;SDS011;6700;51.988;7.646;2022-11-18T11:20:37;24.07;;;15.57;;
13263;SDS011;6700;51.988;7.646;2022-11-18T11:23:08;20.00;;;14.93;;
13263;SDS011;6700;51.988;7.646;2022-11-18T11:25:42;22.30;;;15.03;;
13263;SDS011;6700;51.988;7.646;2022-11-18T11:28:32;20.83;;;14.73;;
13263;SDS011;6700;51.988;7.646;2022-11-18T11:36:34;18.87;;;13.90;;
13263;SDS011;6700;51.988;7.646;2022-11-18T11:39:08;22.97;;;14.60;;
13263;SDS011;6700;51.988;7.646;2022-11-18T11:56:17;17.50;;;12.37;;
13263;SDS011;6700;51.988;7.646;2022-11-18T11:59:04;16.03;;;12.13;;
13263;SDS011;6700;51.988;7.646;2022-11-18T12:07:01;13.90;;;11.50;;
13263;SDS011;6700;51.988;7.646;2022-11-18T12:12:05;14.57;;;11.73;;
13263;SDS011;6700;51.988;7.646;2022-11-18T12:14:55;14.03;;;12.10;;
13263;SDS011;6700;51.988;7.646;2022-11-18T12:17:26;15.53;;;11.90;;
13263;SDS011;6700;51.988;7.646;2022-11-18T12:19:58;13.27;;;11.07;;
13263;SDS011;6700;51.988;7.646;2022-11-18T12:25:42;10.50;;;8.90;;
13263;SDS011;6700;51.988;7.646;2022-11-18T12:27:58;10.13;;;9.07;;
13263;SDS011;6700;51.988;7.646;2022-11-18T12:30:25;12.63;;;9.10;;
13263;SDS011;6700;51.988;7.646;2022-11-18T12:32:55;12.57;;;9.93;;
13263;SDS011;6700;51.988;7.646;2022-11-18T12:35:24;11.17;;;8.97;;
13263;SDS011;6700;51.988;7.646;2022-11-18T12:40:34;11.27;;;9.00;;
13263;SDS011;6700;51.988;7.646;2022-11-18T12:43:02;10.33;;;8.17;;
13263;SDS011;6700;51.988;7.646;2022-11-18T12:45:52;11.00;;;9.60;;
13263;SDS011;6700;51.988;7.646;2022-11-18T12:50:57;12.90;;;8.73;;
13263;SDS011;6700;51.988;7.646;2022-11-18T12:55:58;12.53;;;9.13;;
13263;SDS011;6700;51.988;7.646;2022-11-18T12:58:25;9.40;;;8.40;;
13263;SDS011;6700;51.988;7.646;2022-11-18T13:04:04;11.37;;;9.03;;
13263;SDS011;6700;51.988;7.646;2022-11-18T13:06:32;11.03;;;8.47;;
13263;SDS011;6700;51.988;7.646;2022-11-18T13:09:01;10.87;;;7.60;;
13263;SDS011;6700;51.988;7.646;2022-11-18T13:11:29;11.00;;;9.13;;
13263;SDS011;6700;51.988;7.646;2022-11-18T13:14:16;9.87;;;8.50;;
13263;SDS011;6700;51.988;7.646;2022-11-18T13:17:02;12.73;;;9.47;;
13263;SDS011;6700;51.988;7.646;2022-11-18T13:22:53;11.60;;;9.73;;
13263;SDS011;6700;51.988;7.646;2022-11-18T13:25:39;13.47;;;9.60;;
13263;SDS011;6700;51.988;7.646;2022-11-18T13:30:48;11.57;;;10.33;;
13263;SDS011;6700;51.988;7.646;2022-11-18T13:33:17;11.07;;;9.87;;
13263;SDS011;6700;51.988;7.646;2022-11-18T13:35:44;10.27;;;9.17;;
13263;SDS011;6700;51.988;7.646;2022-11-18T13:38:21;10.93;;;9.47;;
13263;SDS011;6700;51.988;7.646;2022-11-18T13:40:53;11.53;;;9.60;;
13263;SDS011;6700;51.988;7.646;2022-11-18T13:43:30;10.47;;;9.37;;
13263;SDS011;6700;51.988;7.646;2022-11-18T13:46:03;9.93;;;8.93;;
13263;SDS011;6700;51.988;7.646;2022-11-18T13:48:31;10.60;;;8.50;;
13263;SDS011;6700;51.988;7.646;2022-11-18T13:50:59;11.90;;;8.80;;
13263;SDS011;6700;51.988;7.646;2022-11-18T13:53:30;8.90;;;8.00;;
13263;SDS011;6700;51.988;7.646;2022-11-18T13:56:02;10.23;;;8.57;;
13263;SDS011;6700;51.988;7.646;2022-11-18T13:58:37;9.03;;;8.13;;
13263;SDS011;6700;51.988;7.646;2022-11-18T14:01:32;9.80;;;8.30;;
13263;SDS011;6700;51.988;7.646;2022-11-18T14:04:00;9.90;;;8.57;;
13263;SDS011;6700;51.988;7.646;2022-11-18T14:09:03;12.87;;;8.90;;
13263;SDS011;6700;51.988;7.646;2022-11-18T14:11:34;9.50;;;8.50;;
13263;SDS011;6700;51.988;7.646;2022-11-18T14:14:01;8.73;;;7.73;;
13263;SDS011;6700;51.988;7.646;2022-11-18T14:16:30;9.03;;;8.10;;
13263;SDS011;6700;51.988;7.646;2022-11-18T14:18:57;10.10;;;8.17;;
13263;SDS011;6700;51.988;7.646;2022-11-18T14:21:34;8.97;;;7.87;;
13263;SDS011;6700;51.988;7.646;2022-11-18T14:24:03;9.40;;;7.93;;
13263;SDS011;6700;51.988;7.646;2022-11-18T14:28:59;9.57;;;7.83;;
13263;SDS011;6700;51.988;7.646;2022-11-18T14:31:30;8.90;;;7.63;;
13263;SDS011;6700;51.988;7.646;2022-11-18T14:34:42;9.10;;;8.07;;
13263;SDS011;6700;51.988;7.646;2022-11-18T14:36:45;10.07;;;8.00;;
13263;SDS011;6700;51.988;7.646;2022-11-18T14:39:18;8.40;;;7.47;;
13263;SDS011;6700;51.988;7.646;2022-11-18T14:41:52;9.13;;;8.07;;
13263;SDS011;6700;51.988;7.646;2022-11-18T14:44:20;10.60;;;9.03;;
13263;SDS011;6700;51.988;7.646;2022-11-18T14:46:57;10.67;;;8.67;;
13263;SDS011;6700;51.988;7.646;2022-11-18T14:49:25;11.13;;;9.37;;
13263;SDS011;6700;51.988;7.646;2022-11-18T14:51:53;13.07;;;10.10;;
13263;SDS011;6700;51.988;7.646;2022-11-18T14:54:21;11.30;;;9.23;;
13263;SDS011;6700;51.988;7.646;2022-11-18T14:57:02;13.63;;;9.87;;
13263;SDS011;6700;51.988;7.646;2022-11-18T14:59:29;13.83;;;9.33;;
13263;SDS011;6700;51.988;7.646;2022-11-18T15:01:56;10.80;;;8.73;;
13263;SDS011;6700;51.988;7.646;2022-11-18T15:04:27;16.30;;;11.33;;
13263;SDS011;6700;51.988;7.646;2022-11-18T15:09:24;14.30;;;10.17;;
13263;SDS011;6700;51.988;7.646;2022-11-18T15:11:51;11.50;;;10.30;;
13263;SDS011;6700;51.988;7.646;2022-11-18T15:14:20;12.53;;;9.60;;
13263;SDS011;6700;51.988;7.646;2022-11-18T15:16:56;10.80;;;9.33;;
13263;SDS011;6700;51.988;7.646;2022-11-18T15:19:23;13.43;;;10.40;;
13263;SDS011;6700;51.988;7.646;2022-11-18T15:21:50;11.07;;;9.13;;
13263;SDS011;6700;51.988;7.646;2022-11-18T15:24:17;13.70;;;9.57;;
13263;SDS011;6700;51.988;7.646;2022-11-18T15:26:46;10.60;;;8.17;;
13263;SDS011;6700;51.988;7.646;2022-11-18T15:29:20;11.33;;;9.67;;
13263;SDS011;6700;51.988;7.646;2022-11-18T15:31:48;10.73;;;9.13;;
13263;SDS011;6700;51.988;7.646;2022-11-18T15:34:15;9.03;;;8.13;;
13263;SDS011;6700;51.988;7.646;2022-11-18T15:36:43;13.67;;;10.17;;
13263;SDS011;6700;51.988;7.646;2022-11-18T15:39:10;10.17;;;8.57;;
13263;SDS011;6700;51.988;7.646;2022-11-18T15:41:38;10.97;;;8.47;;
13263;SDS011;6700;51.988;7.646;2022-11-18T15:44:07;9.93;;;8.57;;
13263;SDS011;6700;51.988;7.646;2022-11-18T15:46:35;11.53;;;9.13;;
13263;SDS011;6700;51.988;7.646;2022-11-18T15:49:02;13.53;;;8.13;;
13263;SDS011;6700;51.988;7.646;2022-11-18T15:51:29;9.50;;;7.17;;
13263;SDS011;6700;51.988;7.646;2022-11-18T15:53:58;9.07;;;7.20;;
13263;SDS011;6700;51.988;7.646;2022-11-18T15:56:26;9.17;;;7.07;;
13263;SDS011;6700;51.988;7.646;2022-11-18T15:59:00;8.60;;;6.93;;
13263;SDS011;6700;51.988;7.646;2022-11-18T16:01:29;10.47;;;7.33;;
13263;SDS011;6700;51.988;7.646;2022-11-18T16:03:56;8.17;;;6.70;;
13263;SDS011;6700;51.988;7.646;2022-11-18T16:06:23;10.40;;;7.00;;
13263;SDS011;6700;51.988;7.646;2022-11-18T16:08:51;8.70;;;7.10;;
13263;SDS011;6700;51.988;7.646;2022-11-18T16:11:25;8.30;;;7.17;;
13263;SDS011;6700;51.988;7.646;2022-11-18T16:14:11;10.10;;;6.27;;
13263;SDS011;6700;51.988;7.646;2022-11-18T16:16:39;12.00;;;7.37;;
13263;SDS011;6700;51.988;7.646;2022-11-18T16:19:07;8.60;;;7.20;;
13263;SDS011;6700;51.988;7.646;2022-11-18T16:21:35;8.83;;;7.10;;
13263;SDS011;6700;51.988;7.646;2022-11-18T16:24:04;8.57;;;7.20;;
13263;SDS011;6700;51.988;7.646;2022-11-18T16:26:31;9.53;;;8.23;;
13263;SDS011;6700;51.988;7.646;2022-11-18T16:28:59;8.73;;;6.93;;
13263;SDS011;6700;51.988;7.646;2022-11-18T16:31:26;12.03;;;7.57;;
13263;SDS011;6700;51.988;7.646;2022-11-18T16:34:09;7.93;;;6.53;;
13263;SDS011;6700;51.988;7.646;2022-11-18T16:36:38;9.40;;;6.80;;
13263;SDS011;6700;51.988;7.646;2022-11-18T16:39:06;8.93;;;7.37;;
13263;SDS011;6700;51.988;7.646;2022-11-18T16:41:34;7.63;;;6.83;;
13263;SDS011;6700;51.988;7.646;2022-11-18T16:44:03;12.17;;;9.10;;
13263;SDS011;6700;51.988;7.646;2022-11-18T16:46:31;13.93;;;10.93;;
13263;SDS011;6700;51.988;7.646;2022-11-18T16:48:59;15.27;;;9.40;;
13263;SDS011;6700;51.988;7.646;2022-11-18T16:51:27;14.87;;;10.80;;
13263;SDS011;6700;51.988;7.646;2022-11-18T16:53:59;8.90;;;7.53;;
13263;SDS011;6700;51.988;7.646;2022-11-18T16:56:27;12.03;;;9.07;;
13263;SDS011;6700;51.988;7.646;2022-11-18T16:58:55;11.40;;;8.63;;
13263;SDS011;6700;51.988;7.646;2022-11-18T17:01:23;9.33;;;7.70;;
13263;SDS011;6700;51.988;7.646;2022-11-18T17:03:55;11.03;;;8.30;;